首页
METAR-TAF:

METAR-TAF

机场 :

皮亚琴察, 意大利

纬度: 44-55N, 经度: 009-44E, 海拔: 134米

当前天气观测

该预报发布于1小时和12分钟前的13:55 UTC
风速10节,风向东南,在之间变化
温度 10°C
湿度 100%
气压 1020 hPa
能见度10公里或以上
散云层高于2700英尺
多云层高于3500英尺
小雨

METAR: LIMS 151355Z 13010KT 090V180 9999 -RA SCT027 BKN035 10/10 Q1020 RMK BKN VIS MIN 9999 WIND THR30 12007KT BLU

时间: 17:07 (15:07 UTC)


TAF: 丢失

超过4000个机场的气象观测和天气预报(METAR&TAF报告)。

可查询的气象台以黄色和红色小点在地图上表示。

将鼠标移到小点上方,可查看气象台名称。

然后点击查看天气观测和预报。

如需切换地图:点击带黑十字的绿色按钮放大地图;点击带横线的绿色按钮缩小地图;或者点击绿色箭头查看邻近地区的地图。


METAR-TAF: